Mistatim, Canada
Current Conditions -  °F | °C
As of 6:00 AM on Friday 24 Oct 2014 (Local Time) from CYBU Reporting Station
Overcast Overcast  
Wind Chill: 40°   Ceiling: 12000
Heat Index: 45°   Visibility: 9mi
Dew Point: 41°   Wind: 9mph
Humidity: 87%   Direction: 230°SW
Pressure: 29.49"   Gusts: NA
Location:  52.87°N, 103.37°W
Report Text: CYBU 241200Z AUTO 23008KT 9SM BKN120 OVC170 07/05 A2949 RMK SLP000
Loading
Personal Weather Stations






























Interactive Weather Map
Tropical Storm Tracking
New forecast layout! Learn more

10-Day Weather Forecast

Advertisements
Track Severe Weather on mobile